sensor_id;sensor_type;location;lat;lon;timestamp;temperature;humidity
25074;DHT22;13066;52.042;5.648;2022-09-29T00:00:52;10.00;99.90
25074;DHT22;13066;52.042;5.648;2022-09-29T00:03:21;10.00;99.90
25074;DHT22;13066;52.042;5.648;2022-09-29T00:05:51;10.00;99.90
25074;DHT22;13066;52.042;5.648;2022-09-29T00:08:21;10.00;99.90
25074;DHT22;13066;52.042;5.648;2022-09-29T00:10:50;10.00;99.90
25074;DHT22;13066;52.042;5.648;2022-09-29T00:13:18;10.00;99.90
25074;DHT22;13066;52.042;5.648;2022-09-29T00:15:55;9.90;99.90
25074;DHT22;13066;52.042;5.648;2022-09-29T00:18:23;9.90;99.90
25074;DHT22;13066;52.042;5.648;2022-09-29T00:20:58;9.90;99.90
25074;DHT22;13066;52.042;5.648;2022-09-29T00:23:28;9.90;99.90
25074;DHT22;13066;52.042;5.648;2022-09-29T00:26:02;9.90;99.90
25074;DHT22;13066;52.042;5.648;2022-09-29T00:28:31;9.90;99.90
25074;DHT22;13066;52.042;5.648;2022-09-29T00:31:00;9.90;99.90
25074;DHT22;13066;52.042;5.648;2022-09-29T00:33:29;9.80;99.90
25074;DHT22;13066;52.042;5.648;2022-09-29T00:36:00;9.80;99.90
25074;DHT22;13066;52.042;5.648;2022-09-29T00:38:29;9.80;99.90
25074;DHT22;13066;52.042;5.648;2022-09-29T00:40:58;9.80;99.90
25074;DHT22;13066;52.042;5.648;2022-09-29T00:43:50;9.70;99.90
25074;DHT22;13066;52.042;5.648;2022-09-29T00:46:23;9.70;99.90
25074;DHT22;13066;52.042;5.648;2022-09-29T00:48:52;9.70;99.90
25074;DHT22;13066;52.042;5.648;2022-09-29T00:51:23;9.70;99.90
25074;DHT22;13066;52.042;5.648;2022-09-29T00:53:52;9.60;99.90
25074;DHT22;13066;52.042;5.648;2022-09-29T00:56:20;9.60;99.90
25074;DHT22;13066;52.042;5.648;2022-09-29T00:58:52;9.60;99.90
25074;DHT22;13066;52.042;5.648;2022-09-29T01:01:21;9.60;99.90
25074;DHT22;13066;52.042;5.648;2022-09-29T01:03:54;9.60;99.90
25074;DHT22;13066;52.042;5.648;2022-09-29T01:06:26;9.60;99.90
25074;DHT22;13066;52.042;5.648;2022-09-29T01:08:58;9.60;99.90
25074;DHT22;13066;52.042;5.648;2022-09-29T01:11:28;9.60;99.90
25074;DHT22;13066;52.042;5.648;2022-09-29T01:13:59;9.60;99.90
25074;DHT22;13066;52.042;5.648;2022-09-29T01:16:29;9.60;99.90
25074;DHT22;13066;52.042;5.648;2022-09-29T01:18:59;9.50;99.90
25074;DHT22;13066;52.042;5.648;2022-09-29T01:21:35;9.50;99.90
25074;DHT22;13066;52.042;5.648;2022-09-29T01:24:35;9.50;99.90
25074;DHT22;13066;52.042;5.648;2022-09-29T01:27:13;9.50;99.90
25074;DHT22;13066;52.042;5.648;2022-09-29T01:30:09;9.50;99.90
25074;DHT22;13066;52.042;5.648;2022-09-29T01:32:55;9.50;99.90
25074;DHT22;13066;52.042;5.648;2022-09-29T01:35:36;9.50;99.90
25074;DHT22;13066;52.042;5.648;2022-09-29T01:38:17;9.50;99.90
25074;DHT22;13066;52.042;5.648;2022-09-29T01:40:53;9.50;99.90
25074;DHT22;13066;52.042;5.648;2022-09-29T01:43:31;9.50;99.90
25074;DHT22;13066;52.042;5.648;2022-09-29T01:46:02;9.50;99.90
25074;DHT22;13066;52.042;5.648;2022-09-29T01:48:36;9.50;99.90
25074;DHT22;13066;52.042;5.648;2022-09-29T01:51:09;9.50;99.90
25074;DHT22;13066;52.042;5.648;2022-09-29T01:53:43;9.40;99.90
25074;DHT22;13066;52.042;5.648;2022-09-29T01:56:17;9.40;99.90
25074;DHT22;13066;52.042;5.648;2022-09-29T01:58:51;9.40;99.90
25074;DHT22;13066;52.042;5.648;2022-09-29T02:01:25;9.40;99.90
25074;DHT22;13066;52.042;5.648;2022-09-29T02:03:56;9.40;99.90
25074;DHT22;13066;52.042;5.648;2022-09-29T02:06:29;9.40;99.90
25074;DHT22;13066;52.042;5.648;2022-09-29T02:09:04;9.30;99.90
25074;DHT22;13066;52.042;5.648;2022-09-29T02:11:39;9.40;99.90
25074;DHT22;13066;52.042;5.648;2022-09-29T02:14:11;9.40;99.90
25074;DHT22;13066;52.042;5.648;2022-09-29T02:16:46;9.30;99.90
25074;DHT22;13066;52.042;5.648;2022-09-29T02:19:18;9.40;99.90
25074;DHT22;13066;52.042;5.648;2022-09-29T02:21:48;9.30;99.90
25074;DHT22;13066;52.042;5.648;2022-09-29T02:24:17;9.30;99.90
25074;DHT22;13066;52.042;5.648;2022-09-29T02:26:46;9.30;99.90
25074;DHT22;13066;52.042;5.648;2022-09-29T02:29:15;9.30;99.90
25074;DHT22;13066;52.042;5.648;2022-09-29T02:31:44;9.30;99.90
25074;DHT22;13066;52.042;5.648;2022-09-29T02:34:17;9.30;99.90
25074;DHT22;13066;52.042;5.648;2022-09-29T02:36:53;9.30;99.90
25074;DHT22;13066;52.042;5.648;2022-09-29T02:39:34;9.30;99.90
25074;DHT22;13066;52.042;5.648;2022-09-29T02:42:16;9.30;99.90
25074;DHT22;13066;52.042;5.648;2022-09-29T02:45:10;9.30;99.90
25074;DHT22;13066;52.042;5.648;2022-09-29T02:50:46;9.20;99.90
25074;DHT22;13066;52.042;5.648;2022-09-29T02:53:23;9.20;99.90
25074;DHT22;13066;52.042;5.648;2022-09-29T02:55:58;9.20;99.90
25074;DHT22;13066;52.042;5.648;2022-09-29T02:58:34;9.20;99.90
25074;DHT22;13066;52.042;5.648;2022-09-29T03:01:09;9.20;99.90
25074;DHT22;13066;52.042;5.648;2022-09-29T03:03:37;9.20;99.90
25074;DHT22;13066;52.042;5.648;2022-09-29T03:06:08;9.10;99.90
25074;DHT22;13066;52.042;5.648;2022-09-29T03:08:36;9.20;99.90
25074;DHT22;13066;52.042;5.648;2022-09-29T03:11:04;9.20;99.90
25074;DHT22;13066;52.042;5.648;2022-09-29T03:13:32;9.20;99.90
25074;DHT22;13066;52.042;5.648;2022-09-29T03:16:00;9.20;99.90
25074;DHT22;13066;52.042;5.648;2022-09-29T03:18:28;9.20;99.90
25074;DHT22;13066;52.042;5.648;2022-09-29T03:20:56;9.10;99.90
25074;DHT22;13066;52.042;5.648;2022-09-29T03:23:26;9.10;99.90
25074;DHT22;13066;52.042;5.648;2022-09-29T03:25:54;9.10;99.90
25074;DHT22;13066;52.042;5.648;2022-09-29T03:28:22;9.10;99.90
25074;DHT22;13066;52.042;5.648;2022-09-29T03:30:50;9.10;99.90
25074;DHT22;13066;52.042;5.648;2022-09-29T03:33:17;9.10;99.90
25074;DHT22;13066;52.042;5.648;2022-09-29T03:35:45;9.10;99.90
25074;DHT22;13066;52.042;5.648;2022-09-29T03:38:13;9.10;99.90
25074;DHT22;13066;52.042;5.648;2022-09-29T03:40:43;9.10;99.90
25074;DHT22;13066;52.042;5.648;2022-09-29T03:43:10;9.10;99.90
25074;DHT22;13066;52.042;5.648;2022-09-29T03:45:47;9.00;99.90
25074;DHT22;13066;52.042;5.648;2022-09-29T03:48:16;9.10;99.90
25074;DHT22;13066;52.042;5.648;2022-09-29T03:50:51;9.00;99.90
25074;DHT22;13066;52.042;5.648;2022-09-29T03:53:20;9.00;99.90
25074;DHT22;13066;52.042;5.648;2022-09-29T03:55:50;9.00;99.90
25074;DHT22;13066;52.042;5.648;2022-09-29T03:58:18;9.00;99.90
25074;DHT22;13066;52.042;5.648;2022-09-29T04:00:47;9.00;99.90
25074;DHT22;13066;52.042;5.648;2022-09-29T04:03:16;9.00;99.90
25074;DHT22;13066;52.042;5.648;2022-09-29T04:05:44;9.00;99.90
25074;DHT22;13066;52.042;5.648;2022-09-29T04:08:13;9.00;99.90
25074;DHT22;13066;52.042;5.648;2022-09-29T04:10:41;8.90;99.90
25074;DHT22;13066;52.042;5.648;2022-09-29T04:13:11;8.90;99.90
25074;DHT22;13066;52.042;5.648;2022-09-29T04:15:45;8.90;99.90
25074;DHT22;13066;52.042;5.648;2022-09-29T04:18:13;8.90;99.90
25074;DHT22;13066;52.042;5.648;2022-09-29T04:20:41;8.90;99.90
25074;DHT22;13066;52.042;5.648;2022-09-29T04:23:09;8.90;99.90
25074;DHT22;13066;52.042;5.648;2022-09-29T04:25:38;8.90;99.90
25074;DHT22;13066;52.042;5.648;2022-09-29T04:28:06;8.80;99.90
25074;DHT22;13066;52.042;5.648;2022-09-29T04:30:35;8.80;99.90
25074;DHT22;13066;52.042;5.648;2022-09-29T04:33:03;8.80;99.90
25074;DHT22;13066;52.042;5.648;2022-09-29T04:35:31;8.80;99.90
25074;DHT22;13066;52.042;5.648;2022-09-29T04:38:03;8.80;99.90
25074;DHT22;13066;52.042;5.648;2022-09-29T04:40:31;8.70;99.90
25074;DHT22;13066;52.042;5.648;2022-09-29T04:42:59;8.70;99.90
25074;DHT22;13066;52.042;5.648;2022-09-29T04:45:27;8.70;99.90
25074;DHT22;13066;52.042;5.648;2022-09-29T04:47:56;8.70;99.90
25074;DHT22;13066;52.042;5.648;2022-09-29T04:50:24;8.70;99.90
25074;DHT22;13066;52.042;5.648;2022-09-29T04:52:55;8.60;99.90
25074;DHT22;13066;52.042;5.648;2022-09-29T04:55:25;8.60;99.90
25074;DHT22;13066;52.042;5.648;2022-09-29T04:57:53;8.60;99.90
25074;DHT22;13066;52.042;5.648;2022-09-29T05:00:21;8.60;99.90
25074;DHT22;13066;52.042;5.648;2022-09-29T05:02:50;8.60;99.90
25074;DHT22;13066;52.042;5.648;2022-09-29T05:05:19;8.50;99.90
25074;DHT22;13066;52.042;5.648;2022-09-29T05:07:47;8.50;99.90
25074;DHT22;13066;52.042;5.648;2022-09-29T05:10:15;8.50;99.90
25074;DHT22;13066;52.042;5.648;2022-09-29T05:12:47;8.50;99.90
25074;DHT22;13066;52.042;5.648;2022-09-29T05:15:16;8.50;99.90
25074;DHT22;13066;52.042;5.648;2022-09-29T05:17:51;8.40;99.90
25074;DHT22;13066;52.042;5.648;2022-09-29T05:20:20;8.40;99.90
25074;DHT22;13066;52.042;5.648;2022-09-29T05:22:48;8.40;99.90
25074;DHT22;13066;52.042;5.648;2022-09-29T05:25:16;8.40;99.90
25074;DHT22;13066;52.042;5.648;2022-09-29T05:27:44;8.40;99.90
25074;DHT22;13066;52.042;5.648;2022-09-29T05:30:12;8.40;99.90
25074;DHT22;13066;52.042;5.648;2022-09-29T05:32:41;8.40;99.90
25074;DHT22;13066;52.042;5.648;2022-09-29T05:35:10;8.40;99.90
25074;DHT22;13066;52.042;5.648;2022-09-29T05:37:39;8.30;99.90
25074;DHT22;13066;52.042;5.648;2022-09-29T05:40:08;8.30;99.90
25074;DHT22;13066;52.042;5.648;2022-09-29T05:42:36;8.30;99.90
25074;DHT22;13066;52.042;5.648;2022-09-29T05:45:06;8.30;99.90
25074;DHT22;13066;52.042;5.648;2022-09-29T05:47:40;8.30;99.90
25074;DHT22;13066;52.042;5.648;2022-09-29T05:50:09;8.30;99.90
25074;DHT22;13066;52.042;5.648;2022-09-29T05:52:38;8.20;99.90
25074;DHT22;13066;52.042;5.648;2022-09-29T05:55:08;8.20;99.90
25074;DHT22;13066;52.042;5.648;2022-09-29T05:57:36;8.30;99.90
25074;DHT22;13066;52.042;5.648;2022-09-29T06:00:05;8.30;99.90
25074;DHT22;13066;52.042;5.648;2022-09-29T06:02:33;8.30;99.90
25074;DHT22;13066;52.042;5.648;2022-09-29T06:05:01;8.30;99.90
25074;DHT22;13066;52.042;5.648;2022-09-29T06:07:29;8.30;99.90
25074;DHT22;13066;52.042;5.648;2022-09-29T06:09:58;8.30;99.90
25074;DHT22;13066;52.042;5.648;2022-09-29T06:12:26;8.30;99.90
25074;DHT22;13066;52.042;5.648;2022-09-29T06:14:54;8.30;99.90
25074;DHT22;13066;52.042;5.648;2022-09-29T06:17:22;8.30;99.90
25074;DHT22;13066;52.042;5.648;2022-09-29T06:19:50;8.30;99.90
25074;DHT22;13066;52.042;5.648;2022-09-29T06:22:19;8.30;99.90
25074;DHT22;13066;52.042;5.648;2022-09-29T06:24:47;8.30;99.90
25074;DHT22;13066;52.042;5.648;2022-09-29T06:27:16;8.30;99.90
25074;DHT22;13066;52.042;5.648;2022-09-29T06:29:44;8.30;99.90
25074;DHT22;13066;52.042;5.648;2022-09-29T06:32:12;8.30;99.90
25074;DHT22;13066;52.042;5.648;2022-09-29T06:34:40;8.40;99.90
25074;DHT22;13066;52.042;5.648;2022-09-29T06:37:24;8.30;99.90
25074;DHT22;13066;52.042;5.648;2022-09-29T06:40:02;8.40;99.90
25074;DHT22;13066;52.042;5.648;2022-09-29T06:42:38;8.30;99.90
25074;DHT22;13066;52.042;5.648;2022-09-29T06:45:08;8.30;99.90
25074;DHT22;13066;52.042;5.648;2022-09-29T06:47:36;8.40;99.90
25074;DHT22;13066;52.042;5.648;2022-09-29T06:50:05;8.40;99.90
25074;DHT22;13066;52.042;5.648;2022-09-29T06:52:33;8.40;99.90
25074;DHT22;13066;52.042;5.648;2022-09-29T06:55:01;8.50;99.90
25074;DHT22;13066;52.042;5.648;2022-09-29T06:57:29;8.50;99.90
25074;DHT22;13066;52.042;5.648;2022-09-29T06:59:58;8.50;99.90
25074;DHT22;13066;52.042;5.648;2022-09-29T07:02:26;8.60;99.90
25074;DHT22;13066;52.042;5.648;2022-09-29T07:04:54;8.60;99.90
25074;DHT22;13066;52.042;5.648;2022-09-29T07:07:22;8.60;99.90
25074;DHT22;13066;52.042;5.648;2022-09-29T07:09:53;8.60;99.90
25074;DHT22;13066;52.042;5.648;2022-09-29T07:12:21;8.70;99.90
25074;DHT22;13066;52.042;5.648;2022-09-29T07:14:50;8.70;99.90
25074;DHT22;13066;52.042;5.648;2022-09-29T07:17:19;8.70;99.90
25074;DHT22;13066;52.042;5.648;2022-09-29T07:19:47;8.80;99.90
25074;DHT22;13066;52.042;5.648;2022-09-29T07:22:15;8.80;99.90
25074;DHT22;13066;52.042;5.648;2022-09-29T07:24:42;8.90;99.90
25074;DHT22;13066;52.042;5.648;2022-09-29T07:27:12;8.90;99.90
25074;DHT22;13066;52.042;5.648;2022-09-29T07:29:40;9.00;99.90
25074;DHT22;13066;52.042;5.648;2022-09-29T07:32:11;9.00;99.90
25074;DHT22;13066;52.042;5.648;2022-09-29T07:34:54;9.00;99.90
25074;DHT22;13066;52.042;5.648;2022-09-29T07:37:22;9.10;99.90
25074;DHT22;13066;52.042;5.648;2022-09-29T07:39:50;9.10;99.90
25074;DHT22;13066;52.042;5.648;2022-09-29T07:42:19;9.20;99.90
25074;DHT22;13066;52.042;5.648;2022-09-29T07:44:48;9.20;99.90
25074;DHT22;13066;52.042;5.648;2022-09-29T07:47:18;9.20;99.90
25074;DHT22;13066;52.042;5.648;2022-09-29T07:49:46;9.30;99.90
25074;DHT22;13066;52.042;5.648;2022-09-29T07:52:16;9.30;99.90
25074;DHT22;13066;52.042;5.648;2022-09-29T07:54:43;9.40;99.90
25074;DHT22;13066;52.042;5.648;2022-09-29T07:57:11;9.40;99.90
25074;DHT22;13066;52.042;5.648;2022-09-29T07:59:39;9.50;99.90
25074;DHT22;13066;52.042;5.648;2022-09-29T08:02:16;9.50;99.90
25074;DHT22;13066;52.042;5.648;2022-09-29T08:04:44;9.60;99.90
25074;DHT22;13066;52.042;5.648;2022-09-29T08:07:12;9.70;99.90
25074;DHT22;13066;52.042;5.648;2022-09-29T08:09:41;9.70;99.90
25074;DHT22;13066;52.042;5.648;2022-09-29T08:12:11;9.80;99.90
25074;DHT22;13066;52.042;5.648;2022-09-29T08:14:39;9.90;99.90
25074;DHT22;13066;52.042;5.648;2022-09-29T08:17:10;9.90;99.90
25074;DHT22;13066;52.042;5.648;2022-09-29T08:19:37;9.90;99.90
25074;DHT22;13066;52.042;5.648;2022-09-29T08:22:05;10.00;99.90
25074;DHT22;13066;52.042;5.648;2022-09-29T08:24:33;10.00;99.90
25074;DHT22;13066;52.042;5.648;2022-09-29T08:27:03;10.10;99.90
25074;DHT22;13066;52.042;5.648;2022-09-29T08:29:44;10.10;99.90
25074;DHT22;13066;52.042;5.648;2022-09-29T08:32:13;10.20;99.90
25074;DHT22;13066;52.042;5.648;2022-09-29T08:34:41;10.20;99.90
25074;DHT22;13066;52.042;5.648;2022-09-29T08:37:09;10.20;99.90
25074;DHT22;13066;52.042;5.648;2022-09-29T08:39:37;10.30;99.90
25074;DHT22;13066;52.042;5.648;2022-09-29T08:42:13;10.30;99.90
25074;DHT22;13066;52.042;5.648;2022-09-29T08:44:46;10.40;99.90
25074;DHT22;13066;52.042;5.648;2022-09-29T08:47:17;10.40;99.90
25074;DHT22;13066;52.042;5.648;2022-09-29T08:49:48;10.40;99.90
25074;DHT22;13066;52.042;5.648;2022-09-29T08:52:21;10.40;99.90
25074;DHT22;13066;52.042;5.648;2022-09-29T08:54:55;10.40;99.90
25074;DHT22;13066;52.042;5.648;2022-09-29T08:57:26;10.50;99.90
25074;DHT22;13066;52.042;5.648;2022-09-29T08:59:58;10.50;99.90
25074;DHT22;13066;52.042;5.648;2022-09-29T09:02:38;10.50;99.90
25074;DHT22;13066;52.042;5.648;2022-09-29T09:05:23;10.60;99.90
25074;DHT22;13066;52.042;5.648;2022-09-29T09:08:00;10.60;99.90
25074;DHT22;13066;52.042;5.648;2022-09-29T09:10:39;10.60;99.90
25074;DHT22;13066;52.042;5.648;2022-09-29T09:13:29;10.60;99.90
25074;DHT22;13066;52.042;5.648;2022-09-29T09:16:11;10.60;99.90
25074;DHT22;13066;52.042;5.648;2022-09-29T09:19:20;10.70;99.90
25074;DHT22;13066;52.042;5.648;2022-09-29T09:21:57;10.70;99.90
25074;DHT22;13066;52.042;5.648;2022-09-29T09:24:32;10.70;99.90
25074;DHT22;13066;52.042;5.648;2022-09-29T09:27:12;10.80;99.90
25074;DHT22;13066;52.042;5.648;2022-09-29T09:29:43;10.80;99.90
25074;DHT22;13066;52.042;5.648;2022-09-29T09:32:15;10.90;99.90
25074;DHT22;13066;52.042;5.648;2022-09-29T09:34:52;10.90;99.90
25074;DHT22;13066;52.042;5.648;2022-09-29T09:37:31;10.90;99.90
25074;DHT22;13066;52.042;5.648;2022-09-29T09:40:04;11.00;99.90
25074;DHT22;13066;52.042;5.648;2022-09-29T09:42:36;11.00;99.90
25074;DHT22;13066;52.042;5.648;2022-09-29T09:45:11;11.10;99.90
25074;DHT22;13066;52.042;5.648;2022-09-29T09:47:45;11.10;99.90
25074;DHT22;13066;52.042;5.648;2022-09-29T09:50:16;11.10;99.90
25074;DHT22;13066;52.042;5.648;2022-09-29T09:52:46;11.20;99.90
25074;DHT22;13066;52.042;5.648;2022-09-29T09:55:17;11.30;99.90
25074;DHT22;13066;52.042;5.648;2022-09-29T09:58:01;11.30;99.90
25074;DHT22;13066;52.042;5.648;2022-09-29T10:00:37;11.40;99.90
25074;DHT22;13066;52.042;5.648;2022-09-29T10:03:08;11.50;99.90
25074;DHT22;13066;52.042;5.648;2022-09-29T10:05:39;11.50;99.90
25074;DHT22;13066;52.042;5.648;2022-09-29T10:08:11;11.50;99.90
25074;DHT22;13066;52.042;5.648;2022-09-29T10:10:40;11.60;99.90
25074;DHT22;13066;52.042;5.648;2022-09-29T10:13:25;11.60;99.90
25074;DHT22;13066;52.042;5.648;2022-09-29T10:15:57;11.70;99.90
25074;DHT22;13066;52.042;5.648;2022-09-29T10:18:29;11.80;99.90
25074;DHT22;13066;52.042;5.648;2022-09-29T10:20:58;11.80;99.90
25074;DHT22;13066;52.042;5.648;2022-09-29T10:23:29;11.90;99.90
25074;DHT22;13066;52.042;5.648;2022-09-29T10:26:00;12.00;99.90
25074;DHT22;13066;52.042;5.648;2022-09-29T10:28:38;12.10;99.90
25074;DHT22;13066;52.042;5.648;2022-09-29T10:31:20;12.20;99.90
25074;DHT22;13066;52.042;5.648;2022-09-29T10:33:52;12.30;99.90
25074;DHT22;13066;52.042;5.648;2022-09-29T10:36:21;12.30;99.90
25074;DHT22;13066;52.042;5.648;2022-09-29T10:38:51;12.40;99.90
25074;DHT22;13066;52.042;5.648;2022-09-29T10:41:19;12.40;99.90
25074;DHT22;13066;52.042;5.648;2022-09-29T10:43:48;12.50;99.90
25074;DHT22;13066;52.042;5.648;2022-09-29T10:46:48;12.50;99.90
25074;DHT22;13066;52.042;5.648;2022-09-29T10:49:18;12.60;99.90
25074;DHT22;13066;52.042;5.648;2022-09-29T10:51:56;12.60;99.90
25074;DHT22;13066;52.042;5.648;2022-09-29T10:54:25;12.70;99.90
25074;DHT22;13066;52.042;5.648;2022-09-29T10:56:55;12.70;99.90
25074;DHT22;13066;52.042;5.648;2022-09-29T10:59:25;12.80;99.90
25074;DHT22;13066;52.042;5.648;2022-09-29T11:01:57;12.90;99.90
25074;DHT22;13066;52.042;5.648;2022-09-29T11:04:28;12.90;99.90
25074;DHT22;13066;52.042;5.648;2022-09-29T11:07:04;13.00;99.90
25074;DHT22;13066;52.042;5.648;2022-09-29T11:09:38;13.10;99.90
25074;DHT22;13066;52.042;5.648;2022-09-29T11:12:25;13.00;99.90
25074;DHT22;13066;52.042;5.648;2022-09-29T11:14:54;13.10;99.90
25074;DHT22;13066;52.042;5.648;2022-09-29T11:17:25;13.20;99.90
25074;DHT22;13066;52.042;5.648;2022-09-29T11:19:56;13.30;99.90
25074;DHT22;13066;52.042;5.648;2022-09-29T11:22:37;13.30;99.90
25074;DHT22;13066;52.042;5.648;2022-09-29T11:25:25;13.40;99.90
25074;DHT22;13066;52.042;5.648;2022-09-29T11:28:13;13.40;99.90
25074;DHT22;13066;52.042;5.648;2022-09-29T11:30:55;13.50;99.90
25074;DHT22;13066;52.042;5.648;2022-09-29T11:33:37;13.50;99.90
25074;DHT22;13066;52.042;5.648;2022-09-29T11:36:16;13.60;99.90
25074;DHT22;13066;52.042;5.648;2022-09-29T11:38:53;13.60;99.90
25074;DHT22;13066;52.042;5.648;2022-09-29T11:41:36;13.70;99.90
25074;DHT22;13066;52.042;5.648;2022-09-29T11:44:20;13.80;99.90
25074;DHT22;13066;52.042;5.648;2022-09-29T11:47:02;13.80;99.90
25074;DHT22;13066;52.042;5.648;2022-09-29T11:49:54;13.80;99.90
25074;DHT22;13066;52.042;5.648;2022-09-29T11:55:29;14.00;99.80
25074;DHT22;13066;52.042;5.648;2022-09-29T11:58:09;14.00;99.20
25074;DHT22;13066;52.042;5.648;2022-09-29T12:00:49;14.00;99.20
25074;DHT22;13066;52.042;5.648;2022-09-29T12:03:26;14.10;99.00
25074;DHT22;13066;52.042;5.648;2022-09-29T12:06:14;14.20;99.10
25074;DHT22;13066;52.042;5.648;2022-09-29T12:08:54;14.20;99.00
25074;DHT22;13066;52.042;5.648;2022-09-29T12:11:32;14.30;98.90
25074;DHT22;13066;52.042;5.648;2022-09-29T12:14:27;14.30;98.40
25074;DHT22;13066;52.042;5.648;2022-09-29T12:17:10;14.40;97.80
25074;DHT22;13066;52.042;5.648;2022-09-29T12:19:40;14.40;97.60
25074;DHT22;13066;52.042;5.648;2022-09-29T12:22:16;14.50;97.50
25074;DHT22;13066;52.042;5.648;2022-09-29T12:24:49;14.50;97.30
25074;DHT22;13066;52.042;5.648;2022-09-29T12:27:22;14.60;97.20
25074;DHT22;13066;52.042;5.648;2022-09-29T12:29:55;14.60;97.20
25074;DHT22;13066;52.042;5.648;2022-09-29T12:32:27;14.70;96.60
25074;DHT22;13066;52.042;5.648;2022-09-29T12:35:00;14.70;96.30
25074;DHT22;13066;52.042;5.648;2022-09-29T12:37:35;14.80;96.30
25074;DHT22;13066;52.042;5.648;2022-09-29T12:40:11;14.90;96.40
25074;DHT22;13066;52.042;5.648;2022-09-29T12:42:53;15.00;96.10
25074;DHT22;13066;52.042;5.648;2022-09-29T12:45:26;15.10;95.80
25074;DHT22;13066;52.042;5.648;2022-09-29T12:48:09;15.10;95.60
25074;DHT22;13066;52.042;5.648;2022-09-29T12:50:47;15.10;95.00
25074;DHT22;13066;52.042;5.648;2022-09-29T12:53:20;15.20;94.70
25074;DHT22;13066;52.042;5.648;2022-09-29T12:55:55;15.20;94.80
25074;DHT22;13066;52.042;5.648;2022-09-29T12:58:31;15.30;94.50
25074;DHT22;13066;52.042;5.648;2022-09-29T13:01:18;15.30;94.30
25074;DHT22;13066;52.042;5.648;2022-09-29T13:04:05;15.40;93.80
25074;DHT22;13066;52.042;5.648;2022-09-29T13:07:01;15.50;93.30
25074;DHT22;13066;52.042;5.648;2022-09-29T13:09:59;15.50;93.40
25074;DHT22;13066;52.042;5.648;2022-09-29T13:12:49;15.60;93.10
25074;DHT22;13066;52.042;5.648;2022-09-29T13:15:31;15.60;92.80
25074;DHT22;13066;52.042;5.648;2022-09-29T13:18:39;15.60;92.40
25074;DHT22;13066;52.042;5.648;2022-09-29T13:21:30;15.70;92.40
25074;DHT22;13066;52.042;5.648;2022-09-29T13:24:29;15.70;92.70
25074;DHT22;13066;52.042;5.648;2022-09-29T13:27:14;15.80;92.70
25074;DHT22;13066;52.042;5.648;2022-09-29T13:29:47;15.90;92.30
25074;DHT22;13066;52.042;5.648;2022-09-29T13:32:17;16.00;92.30
25074;DHT22;13066;52.042;5.648;2022-09-29T13:34:47;16.10;92.40
25074;DHT22;13066;52.042;5.648;2022-09-29T13:37:19;16.20;91.90
25074;DHT22;13066;52.042;5.648;2022-09-29T13:39:54;16.30;91.40
25074;DHT22;13066;52.042;5.648;2022-09-29T13:42:42;16.30;91.60
25074;DHT22;13066;52.042;5.648;2022-09-29T13:45:16;16.40;91.50
25074;DHT22;13066;52.042;5.648;2022-09-29T13:48:33;16.40;91.30
25074;DHT22;13066;52.042;5.648;2022-09-29T13:54:31;16.50;91.00
25074;DHT22;13066;52.042;5.648;2022-09-29T13:57:16;16.50;90.70
25074;DHT22;13066;52.042;5.648;2022-09-29T14:00:17;16.40;90.40
25074;DHT22;13066;52.042;5.648;2022-09-29T14:02:48;16.50;90.40
25074;DHT22;13066;52.042;5.648;2022-09-29T14:05:46;16.40;90.00
25074;DHT22;13066;52.042;5.648;2022-09-29T14:08:18;16.50;90.30
25074;DHT22;13066;52.042;5.648;2022-09-29T14:10:50;16.50;90.40
25074;DHT22;13066;52.042;5.648;2022-09-29T14:13:24;16.50;90.40
25074;DHT22;13066;52.042;5.648;2022-09-29T14:16:01;16.50;90.60
25074;DHT22;13066;52.042;5.648;2022-09-29T14:18:34;16.50;90.50
25074;DHT22;13066;52.042;5.648;2022-09-29T14:21:05;16.40;90.70
25074;DHT22;13066;52.042;5.648;2022-09-29T14:23:50;16.40;91.20
25074;DHT22;13066;52.042;5.648;2022-09-29T14:26:45;16.40;90.90
25074;DHT22;13066;52.042;5.648;2022-09-29T14:29:19;16.40;91.20
25074;DHT22;13066;52.042;5.648;2022-09-29T14:31:49;16.30;91.20
25074;DHT22;13066;52.042;5.648;2022-09-29T14:34:20;16.30;91.50
25074;DHT22;13066;52.042;5.648;2022-09-29T14:36:52;16.20;91.70
25074;DHT22;13066;52.042;5.648;2022-09-29T14:39:23;16.20;92.10
25074;DHT22;13066;52.042;5.648;2022-09-29T14:41:53;16.20;92.30
25074;DHT22;13066;52.042;5.648;2022-09-29T14:44:24;16.30;92.00
25074;DHT22;13066;52.042;5.648;2022-09-29T14:47:23;16.30;92.10
25074;DHT22;13066;52.042;5.648;2022-09-29T14:50:30;16.30;91.50
25074;DHT22;13066;52.042;5.648;2022-09-29T14:53:29;16.30;91.20
25074;DHT22;13066;52.042;5.648;2022-09-29T14:56:06;16.30;90.80
25074;DHT22;13066;52.042;5.648;2022-09-29T14:58:51;16.30;90.50
25074;DHT22;13066;52.042;5.648;2022-09-29T15:01:27;16.30;90.10
25074;DHT22;13066;52.042;5.648;2022-09-29T15:04:03;16.30;89.30
25074;DHT22;13066;52.042;5.648;2022-09-29T15:06:32;16.30;88.80
25074;DHT22;13066;52.042;5.648;2022-09-29T15:09:02;16.30;87.80
25074;DHT22;13066;52.042;5.648;2022-09-29T15:11:33;16.30;87.60
25074;DHT22;13066;52.042;5.648;2022-09-29T15:14:21;16.30;87.20
25074;DHT22;13066;52.042;5.648;2022-09-29T15:16:58;16.20;87.00
25074;DHT22;13066;52.042;5.648;2022-09-29T15:19:51;16.30;86.90
25074;DHT22;13066;52.042;5.648;2022-09-29T15:22:49;16.30;86.40
25074;DHT22;13066;52.042;5.648;2022-09-29T15:25:24;16.20;85.80
25074;DHT22;13066;52.042;5.648;2022-09-29T15:27:59;16.20;85.90
25074;DHT22;13066;52.042;5.648;2022-09-29T15:30:29;16.10;86.20
25074;DHT22;13066;52.042;5.648;2022-09-29T15:33:15;16.10;86.50
25074;DHT22;13066;52.042;5.648;2022-09-29T15:35:47;16.10;86.80
25074;DHT22;13066;52.042;5.648;2022-09-29T15:38:28;16.00;86.20
25074;DHT22;13066;52.042;5.648;2022-09-29T15:41:00;16.00;86.20
25074;DHT22;13066;52.042;5.648;2022-09-29T15:43:38;16.00;86.00
25074;DHT22;13066;52.042;5.648;2022-09-29T15:46:14;16.00;86.30
25074;DHT22;13066;52.042;5.648;2022-09-29T15:49:10;15.90;86.60
25074;DHT22;13066;52.042;5.648;2022-09-29T15:51:40;15.90;86.60
25074;DHT22;13066;52.042;5.648;2022-09-29T15:54:11;15.80;86.70
25074;DHT22;13066;52.042;5.648;2022-09-29T15:56:39;15.80;87.50
25074;DHT22;13066;52.042;5.648;2022-09-29T15:59:38;15.80;87.90
25074;DHT22;13066;52.042;5.648;2022-09-29T16:02:17;15.80;88.40
25074;DHT22;13066;52.042;5.648;2022-09-29T16:04:50;15.70;89.00
25074;DHT22;13066;52.042;5.648;2022-09-29T16:07:23;15.70;88.80
25074;DHT22;13066;52.042;5.648;2022-09-29T16:09:58;15.70;88.90
25074;DHT22;13066;52.042;5.648;2022-09-29T16:12:35;15.70;89.60
25074;DHT22;13066;52.042;5.648;2022-09-29T16:15:05;15.70;89.70
25074;DHT22;13066;52.042;5.648;2022-09-29T16:17:33;15.70;89.70
25074;DHT22;13066;52.042;5.648;2022-09-29T16:20:02;15.70;89.90
25074;DHT22;13066;52.042;5.648;2022-09-29T16:22:31;15.70;90.00
25074;DHT22;13066;52.042;5.648;2022-09-29T16:25:17;15.70;89.40
25074;DHT22;13066;52.042;5.648;2022-09-29T16:27:52;15.70;89.10
25074;DHT22;13066;52.042;5.648;2022-09-29T16:30:23;15.60;89.30